Hovedside
METAR-TAF:

METAR-TAF

Lufthavner :

Kramfors, Sverige

Kramfors lufthavn

breddegrad: 63-03N, lengdegrad: 017-46E, høyde over havet: 10 m

Gjeldene værobservasjon

Denne rapporten ble laget for 31 minutter siden, klokken 20:20 UTC
Vind 11 kt fra Vest-nordvest
Temperatur 5°C
Luftfuktighet 60%
Trykk 1013 hPa
Sikt 10 km eller mer

METAR: ESNK 262020Z AUTO 30011KT 9999 BKN048/// 05/M02 Q1013

Tid: 22:51 (20:51 UTC)


TAF: fraværende

Værobservasjoner og værvarsel for over 4000 flyplasser (METAR- og TAF-rapporter).

Tilgjengelige stasjoner er representert av de røde og gule prikkene på kartet.

Hold musepekeren over prikken for å se navnet på stasjonen.

Klikk så for å se værobservasjoner og -varsler.

For å forandre kartet kan du klikke på den grønne knappen med svart kryss for å zoome inn, på den grønne knappen med strek for å zoome ut, eller på de grønne pilene for å se tilstøtende kart.


METAR-TAF: